createdAt,value
2018-05-25T00:00:41.267Z,85.80
2018-05-25T00:03:08.725Z,87.70
2018-05-25T00:05:36.181Z,86.70
2018-05-25T00:08:03.761Z,87.70
2018-05-25T00:10:31.237Z,87.80
2018-05-25T00:12:59.474Z,88.30
2018-05-25T00:15:26.942Z,88.20
2018-05-25T00:17:54.411Z,89.20
2018-05-25T00:20:21.987Z,89.30
2018-05-25T00:22:50.206Z,89.00
2018-05-25T00:25:22.844Z,89.40
2018-05-25T00:27:51.094Z,90.00
2018-05-25T00:30:18.549Z,90.00
2018-05-25T00:32:46.005Z,89.90
2018-05-25T00:35:13.477Z,90.50
2018-05-25T00:37:40.934Z,89.30
2018-05-25T00:40:08.389Z,90.40
2018-05-25T00:42:36.145Z,90.80
2018-05-25T00:45:03.597Z,90.60
2018-05-25T00:47:31.093Z,90.10
2018-05-25T00:49:59.321Z,91.30
2018-05-25T00:52:26.797Z,91.30
2018-05-25T00:55:07.081Z,91.60
2018-05-25T00:57:35.441Z,91.70
2018-05-25T01:00:02.893Z,91.60
2018-05-25T01:02:30.765Z,91.60
2018-05-25T01:04:59.761Z,92.20
2018-05-25T01:07:27.237Z,92.20
2018-05-25T01:09:55.419Z,91.90
2018-05-25T01:12:22.878Z,91.90
2018-05-25T01:14:50.301Z,92.60
2018-05-25T01:17:18.537Z,92.70
2018-05-25T01:19:45.966Z,92.70
2018-05-25T01:22:13.546Z,92.60
2018-05-25T01:24:40.970Z,92.50
2018-05-25T01:27:09.158Z,92.70
2018-05-25T01:29:36.638Z,92.70
2018-05-25T01:32:04.088Z,93.00
2018-05-25T01:34:31.515Z,93.10
2018-05-25T01:36:59.825Z,93.50
2018-05-25T01:39:27.245Z,93.50
2018-05-25T01:41:55.430Z,93.70
2018-05-25T01:44:23.618Z,93.40
2018-05-25T01:46:51.634Z,93.30
2018-05-25T01:49:19.050Z,93.60
2018-05-25T01:51:47.218Z,93.10
2018-05-25T01:54:14.768Z,94.00
2018-05-25T01:56:42.987Z,93.90
2018-05-25T01:59:10.417Z,93.90
2018-05-25T02:01:37.951Z,93.50
2018-05-25T02:04:06.143Z,94.30
2018-05-25T02:06:34.330Z,94.00
2018-05-25T02:09:01.787Z,94.00
2018-05-25T02:11:29.201Z,93.60
2018-05-25T02:13:56.938Z,94.20
2018-05-25T02:16:24.374Z,94.10
2018-05-25T02:18:51.797Z,94.40
2018-05-25T02:21:20.003Z,93.90
2018-05-25T02:23:47.425Z,93.90
2018-05-25T02:26:15.811Z,94.60
2018-05-25T02:28:44.005Z,94.50
2018-05-25T02:31:11.582Z,94.50
2018-05-25T02:33:39.062Z,94.40
2018-05-25T02:36:06.482Z,94.30
2018-05-25T02:38:33.922Z,94.00
2018-05-25T02:41:02.306Z,94.40
2018-05-25T02:43:29.755Z,94.30
2018-05-25T02:45:59.010Z,94.20
2018-05-25T02:48:26.442Z,94.20
2018-05-25T02:50:53.909Z,94.30
2018-05-25T02:53:21.322Z,94.40
2018-05-25T02:55:49.535Z,94.00
2018-05-25T02:58:17.005Z,94.00
2018-05-25T03:00:44.564Z,94.30
2018-05-25T03:03:11.931Z,94.50
2018-05-25T03:05:39.631Z,94.70
2018-05-25T03:08:07.879Z,94.70
2018-05-25T03:10:35.290Z,94.60
2018-05-25T03:13:03.324Z,94.40
2018-05-25T03:15:30.750Z,94.00
2018-05-25T03:17:58.201Z,94.00
2018-05-25T03:20:25.635Z,93.70
2018-05-25T03:22:53.397Z,93.90
2018-05-25T03:25:20.838Z,93.80
2018-05-25T03:27:49.146Z,93.30
2018-05-25T03:30:17.178Z,93.60
2018-05-25T03:32:45.357Z,93.50
2018-05-25T03:35:13.542Z,93.60
2018-05-25T03:37:41.141Z,93.60
2018-05-25T03:40:08.580Z,93.40
2018-05-25T03:42:35.997Z,93.40
2018-05-25T03:45:04.230Z,93.00
2018-05-25T03:47:31.676Z,92.90
2018-05-25T03:49:59.139Z,93.00
2018-05-25T03:52:26.590Z,92.70
2018-05-25T03:54:54.005Z,92.80
2018-05-25T03:57:22.318Z,93.00
2018-05-25T04:00:02.057Z,92.90
2018-05-25T04:02:29.546Z,92.90
2018-05-25T04:04:56.972Z,92.10
2018-05-25T04:07:24.437Z,92.50
2018-05-25T04:09:51.873Z,93.10
2018-05-25T04:12:20.081Z,93.40
2018-05-25T04:14:47.666Z,93.50
2018-05-25T04:17:15.225Z,92.40
2018-05-25T04:19:43.501Z,93.50
2018-05-25T04:22:12.466Z,93.50
2018-05-25T04:24:40.657Z,93.50
2018-05-25T04:27:08.141Z,93.40
2018-05-25T04:29:36.457Z,93.10
2018-05-25T04:32:03.946Z,93.10
2018-05-25T04:34:31.613Z,92.90
2018-05-25T04:36:59.037Z,92.60
2018-05-25T04:39:26.558Z,92.70
2018-05-25T04:41:54.114Z,92.40
2018-05-25T04:44:21.534Z,92.50
2018-05-25T04:46:48.959Z,92.00
2018-05-25T04:49:16.697Z,92.00
2018-05-25T04:51:45.637Z,91.80
2018-05-25T04:54:13.095Z,91.80
2018-05-25T04:56:40.566Z,91.30
2018-05-25T04:59:08.054Z,90.60
2018-05-25T05:01:35.567Z,89.50
2018-05-25T05:04:03.237Z,87.90
2018-05-25T05:06:30.650Z,87.00
2018-05-25T05:08:59.478Z,85.40
2018-05-25T05:11:27.037Z,85.30
2018-05-25T05:13:55.135Z,84.40
2018-05-25T05:16:22.554Z,83.30
2018-05-25T05:18:50.049Z,83.00
2018-05-25T05:21:17.470Z,82.10
2018-05-25T05:23:44.903Z,81.90
2018-05-25T05:26:13.246Z,81.30
2018-05-25T05:28:40.665Z,81.30
2018-05-25T05:31:08.093Z,80.60
2018-05-25T05:33:36.469Z,80.00
2018-05-25T05:36:03.873Z,79.80
2018-05-25T05:38:31.333Z,78.60
2018-05-25T05:40:58.829Z,80.30
2018-05-25T05:43:26.909Z,77.10
2018-05-25T05:45:55.281Z,77.10
2018-05-25T05:48:23.517Z,76.20
2018-05-25T05:50:50.961Z,76.10
2018-05-25T05:53:19.121Z,77.60
2018-05-25T05:55:46.810Z,77.60
2018-05-25T05:58:15.106Z,76.80
2018-05-25T06:00:42.509Z,73.70
2018-05-25T06:03:10.702Z,74.20
2018-05-25T06:05:38.888Z,74.10
2018-05-25T06:08:06.382Z,73.70
2018-05-25T06:10:34.574Z,74.10
2018-05-25T06:13:03.030Z,72.50
2018-05-25T06:15:30.455Z,72.50
2018-05-25T06:17:57.873Z,72.40
2018-05-25T06:20:25.374Z,72.30
2018-05-25T06:22:52.938Z,70.50
2018-05-25T06:25:20.424Z,72.00
2018-05-25T06:27:47.885Z,72.20
2018-05-25T06:30:15.417Z,70.10
2018-05-25T06:32:43.742Z,68.80
2018-05-25T06:35:11.560Z,72.80
2018-05-25T06:37:38.985Z,68.50
2018-05-25T06:40:07.171Z,66.60
2018-05-25T06:42:34.674Z,66.60
2018-05-25T06:45:02.370Z,71.60
2018-05-25T06:47:30.109Z,67.60
2018-05-25T06:49:57.531Z,65.30
2018-05-25T06:52:25.978Z,69.20
2018-05-25T06:54:54.178Z,66.40
2018-05-25T06:57:21.605Z,66.30
2018-05-25T06:59:49.849Z,65.60
2018-05-25T07:02:17.321Z,65.50
2018-05-25T07:04:44.753Z,63.70
2018-05-25T07:07:12.174Z,62.80
2018-05-25T07:09:39.653Z,63.50
2018-05-25T07:12:07.068Z,63.60
2018-05-25T07:14:34.488Z,64.10
2018-05-25T07:17:01.964Z,62.90
2018-05-25T07:19:29.357Z,61.20
2018-05-25T07:21:57.683Z,63.50
2018-05-25T07:24:25.097Z,63.50
2018-05-25T07:26:52.529Z,58.40
2018-05-25T07:29:19.975Z,60.40
2018-05-25T07:31:48.040Z,58.40
2018-05-25T07:34:15.451Z,59.60
2018-05-25T07:36:42.881Z,59.10
2018-05-25T07:39:11.084Z,58.70
2018-05-25T07:41:38.502Z,58.50
2018-05-25T07:44:05.963Z,56.70
2018-05-25T07:46:33.670Z,57.80
2018-05-25T07:49:01.093Z,58.20
2018-05-25T07:51:29.809Z,56.30
2018-05-25T07:53:57.276Z,56.10
2018-05-25T07:56:24.744Z,54.50
2018-05-25T07:58:52.302Z,53.00
2018-05-25T08:01:20.602Z,53.90
2018-05-25T08:03:48.058Z,53.90
2018-05-25T08:06:15.477Z,55.00
2018-05-25T08:08:43.473Z,53.70
2018-05-25T08:11:11.053Z,48.20
2018-05-25T08:13:38.584Z,51.50
2018-05-25T08:16:06.481Z,53.80
2018-05-25T08:18:33.915Z,53.70
2018-05-25T08:21:01.399Z,50.80
2018-05-25T08:23:29.028Z,50.20
2018-05-25T08:25:56.514Z,53.20
2018-05-25T08:28:23.934Z,51.40
2018-05-25T08:30:51.589Z,50.70
2018-05-25T08:33:19.020Z,53.90
2018-05-25T08:35:48.430Z,54.20
2018-05-25T08:38:16.689Z,53.10
2018-05-25T08:40:44.205Z,53.10
2018-05-25T08:43:11.984Z,49.80
2018-05-25T08:45:39.398Z,50.10
2018-05-25T08:48:07.674Z,48.60
2018-05-25T08:50:35.871Z,46.80
2018-05-25T08:53:03.291Z,46.80
2018-05-25T08:55:30.719Z,50.30
2018-05-25T08:57:58.287Z,50.90
2018-05-25T09:00:25.705Z,51.70
2018-05-25T09:02:53.241Z,46.60
2018-05-25T09:05:21.444Z,47.10
2018-05-25T09:07:48.904Z,47.20
2018-05-25T09:10:16.990Z,49.00
2018-05-25T09:12:44.649Z,46.70
2018-05-25T09:15:12.065Z,47.60
2018-05-25T09:17:40.325Z,49.30
2018-05-25T09:20:08.558Z,49.10
2018-05-25T09:22:36.807Z,48.50
2018-05-25T09:25:04.247Z,48.00
2018-05-25T09:27:33.432Z,46.20
2018-05-25T09:30:00.875Z,46.20
2018-05-25T09:32:29.069Z,48.00
2018-05-25T09:34:57.298Z,48.00
2018-05-25T09:37:24.958Z,48.20
2018-05-25T09:39:52.386Z,42.90
2018-05-25T09:42:20.574Z,46.70
2018-05-25T09:44:48.247Z,46.60
2018-05-25T09:47:15.714Z,48.90
2018-05-25T09:49:43.134Z,48.00
2018-05-25T09:52:11.390Z,44.20
2018-05-25T09:54:40.336Z,51.30
2018-05-25T09:57:07.811Z,51.10
2018-05-25T09:59:35.225Z,44.70
2018-05-25T10:02:02.662Z,45.90
2018-05-25T10:04:30.846Z,44.40
2018-05-25T10:06:59.043Z,45.90
2018-05-25T10:09:26.540Z,45.90
2018-05-25T10:11:54.114Z,41.60
2018-05-25T10:14:21.538Z,42.20
2018-05-25T10:16:48.957Z,44.00
2018-05-25T10:19:17.176Z,40.00
2018-05-25T10:21:44.655Z,40.00
2018-05-25T10:24:12.079Z,42.30
2018-05-25T10:26:39.571Z,41.00
2018-05-25T10:29:07.201Z,40.60
2018-05-25T10:31:35.117Z,41.40
2018-05-25T10:34:02.594Z,41.20
2018-05-25T10:36:30.782Z,39.70
2018-05-25T10:38:58.600Z,39.80
2018-05-25T10:41:26.131Z,39.70
2018-05-25T10:43:53.588Z,37.30
2018-05-25T10:46:21.250Z,37.60
2018-05-25T10:48:49.529Z,39.90
2018-05-25T10:51:17.030Z,39.80
2018-05-25T10:53:46.039Z,38.80
2018-05-25T10:56:14.574Z,38.40
2018-05-25T10:58:42.116Z,37.80
2018-05-25T11:01:09.594Z,39.00
2018-05-25T11:03:37.066Z,35.90
2018-05-25T11:06:04.486Z,34.20
2018-05-25T11:08:31.907Z,39.40
2018-05-25T11:11:00.106Z,39.80
2018-05-25T11:13:28.294Z,39.90
2018-05-25T11:15:55.755Z,39.80
2018-05-25T11:18:23.174Z,36.30
2018-05-25T11:20:50.598Z,38.80
2018-05-25T11:23:18.190Z,42.90
2018-05-25T11:25:45.605Z,42.60
2018-05-25T11:28:13.026Z,43.50
2018-05-25T11:30:41.241Z,42.50
2018-05-25T11:33:09.128Z,42.40
2018-05-25T11:35:36.743Z,43.30
2018-05-25T11:38:04.202Z,44.40
2018-05-25T11:40:31.625Z,39.10
2018-05-25T11:42:59.573Z,42.90
2018-05-25T11:45:27.053Z,39.80
2018-05-25T11:47:54.487Z,39.30
2018-05-25T11:50:22.047Z,38.80
2018-05-25T11:52:49.637Z,39.10
2018-05-25T11:55:17.151Z,37.40
2018-05-25T11:57:44.599Z,37.10
2018-05-25T12:00:12.222Z,34.30
2018-05-25T12:02:41.166Z,36.90
2018-05-25T12:05:09.048Z,36.90
2018-05-25T12:07:37.297Z,36.70
2018-05-25T12:10:04.722Z,36.50
2018-05-25T12:12:32.956Z,35.80
2018-05-25T12:15:00.462Z,35.90
2018-05-25T12:17:28.651Z,36.90
2018-05-25T12:19:56.125Z,36.80
2018-05-25T12:22:23.894Z,35.70
2018-05-25T12:24:51.330Z,36.70
2018-05-25T12:27:19.503Z,40.50
2018-05-25T12:29:46.933Z,37.40
2018-05-25T12:32:14.354Z,34.10
2018-05-25T12:34:42.134Z,36.60
2018-05-25T12:37:09.561Z,41.50
2018-05-25T12:39:37.029Z,39.90
2018-05-25T12:42:04.598Z,36.20
2018-05-25T12:44:43.858Z,35.10
2018-05-25T12:47:12.805Z,36.70
2018-05-25T12:49:40.226Z,36.70
2018-05-25T12:52:08.418Z,36.50
2018-05-25T12:54:35.942Z,36.40
2018-05-25T12:57:04.127Z,36.40
2018-05-25T12:59:32.319Z,37.80
2018-05-25T13:02:00.550Z,36.60
2018-05-25T13:04:27.994Z,36.80
2018-05-25T13:06:55.423Z,36.70
2018-05-25T13:09:23.101Z,37.60
2018-05-25T13:11:50.528Z,40.20
2018-05-25T13:14:19.082Z,38.30
2018-05-25T13:16:47.577Z,39.80
2018-05-25T13:19:15.766Z,38.60
2018-05-25T13:21:43.984Z,37.50
2018-05-25T13:24:11.412Z,37.20
2018-05-25T13:26:39.127Z,37.10
2018-05-25T13:29:06.558Z,37.40
2018-05-25T13:31:33.985Z,39.10
2018-05-25T13:34:02.819Z,38.80
2018-05-25T13:36:30.403Z,38.80
2018-05-25T13:38:57.862Z,40.10
2018-05-25T13:41:25.290Z,39.50
2018-05-25T13:43:52.738Z,41.30
2018-05-25T13:46:20.179Z,41.10
2018-05-25T13:48:47.779Z,43.20
2018-05-25T13:51:15.541Z,41.20
2018-05-25T13:53:42.954Z,41.10
2018-05-25T13:56:10.642Z,41.10
2018-05-25T13:58:38.071Z,40.70
2018-05-25T14:01:06.379Z,40.20
2018-05-25T14:03:33.915Z,40.20
2018-05-25T14:06:01.454Z,40.30
2018-05-25T14:08:28.816Z,41.80
2018-05-25T14:10:57.050Z,43.00
2018-05-25T14:13:25.022Z,43.00
2018-05-25T14:15:52.556Z,43.90
2018-05-25T14:18:20.158Z,43.80
2018-05-25T14:20:47.694Z,42.40
2018-05-25T14:23:15.115Z,43.60
2018-05-25T14:25:42.618Z,44.10
2018-05-25T14:28:10.155Z,42.50
2018-05-25T14:30:37.650Z,44.30
2018-05-25T14:33:05.851Z,42.20
2018-05-25T14:35:34.042Z,42.40
2018-05-25T14:38:01.468Z,42.40
2018-05-25T14:40:28.911Z,43.60
2018-05-25T14:42:56.450Z,45.30
2018-05-25T14:45:23.895Z,45.80
2018-05-25T14:47:52.098Z,44.60
2018-05-25T14:50:19.515Z,44.60
2018-05-25T14:52:46.943Z,43.90
2018-05-25T14:55:15.182Z,44.30
2018-05-25T14:57:43.267Z,44.20
2018-05-25T15:00:10.794Z,45.30
2018-05-25T15:02:39.186Z,46.10
2018-05-25T15:05:06.610Z,46.00
2018-05-25T15:07:34.096Z,47.30
2018-05-25T15:10:02.173Z,46.50
2018-05-25T15:12:29.589Z,46.60
2018-05-25T15:14:57.842Z,46.00
2018-05-25T15:17:25.261Z,45.90
2018-05-25T15:19:52.678Z,46.60
2018-05-25T15:22:21.191Z,47.30
2018-05-25T15:24:48.614Z,47.20
2018-05-25T15:27:16.806Z,46.90
2018-05-25T15:29:44.250Z,46.90
2018-05-25T15:32:12.442Z,48.20
2018-05-25T15:34:40.022Z,48.20
2018-05-25T15:37:07.474Z,48.20
2018-05-25T15:39:34.905Z,50.20
2018-05-25T15:42:03.082Z,48.30
2018-05-25T15:44:30.523Z,48.20
2018-05-25T15:46:59.742Z,47.00
2018-05-25T15:49:27.166Z,47.00
2018-05-25T15:51:54.787Z,48.10
2018-05-25T15:54:22.217Z,46.80
2018-05-25T15:56:50.702Z,46.50
2018-05-25T15:59:18.162Z,46.50
2018-05-25T16:01:45.578Z,44.00
2018-05-25T16:04:13.802Z,42.80
2018-05-25T16:06:41.250Z,42.80
2018-05-25T16:09:08.738Z,42.00
2018-05-25T16:11:36.481Z,39.60
2018-05-25T16:14:04.273Z,41.10
2018-05-25T16:16:31.703Z,40.20
2018-05-25T16:18:59.199Z,43.60
2018-05-25T16:21:26.626Z,44.30
2018-05-25T16:23:54.730Z,43.50
2018-05-25T16:26:22.170Z,44.20
2018-05-25T16:28:49.609Z,42.10
2018-05-25T16:31:17.915Z,44.50
2018-05-25T16:33:45.334Z,44.30
2018-05-25T16:36:12.762Z,45.10
2018-05-25T16:38:40.642Z,43.90
2018-05-25T16:41:08.858Z,45.00
2018-05-25T16:43:36.316Z,44.90
2018-05-25T16:46:03.811Z,45.50
2018-05-25T16:48:31.252Z,43.30
2018-05-25T16:50:58.671Z,43.20
2018-05-25T16:53:26.134Z,44.40
2018-05-25T16:55:53.586Z,43.50
2018-05-25T16:58:21.793Z,43.40
2018-05-25T17:00:49.218Z,43.30
2018-05-25T17:03:16.701Z,44.80
2018-05-25T17:05:44.595Z,45.90
2018-05-25T17:08:12.013Z,46.60
2018-05-25T17:10:39.438Z,46.50
2018-05-25T17:13:07.642Z,47.20
2018-05-25T17:15:35.238Z,47.10
2018-05-25T17:18:02.658Z,49.20
2018-05-25T17:20:30.114Z,48.30
2018-05-25T17:22:57.574Z,49.40
2018-05-25T17:25:25.007Z,49.00
2018-05-25T17:27:53.222Z,49.90
2018-05-25T17:30:20.959Z,49.90
2018-05-25T17:32:49.167Z,50.90
2018-05-25T17:35:16.636Z,50.80
2018-05-25T17:37:44.091Z,51.30
2018-05-25T17:40:11.555Z,51.90
2018-05-25T17:42:38.993Z,52.60
2018-05-25T17:45:06.421Z,53.90
2018-05-25T17:47:35.245Z,55.90
2018-05-25T17:50:02.666Z,56.00
2018-05-25T17:52:30.866Z,57.00
2018-05-25T17:54:58.313Z,57.00
2018-05-25T17:57:25.898Z,57.80
2018-05-25T17:59:53.317Z,58.10
2018-05-25T18:02:21.509Z,58.30
2018-05-25T18:04:49.103Z,58.20
2018-05-25T18:09:54.967Z,58.40
2018-05-25T18:12:22.393Z,58.90
2018-05-25T18:14:50.599Z,59.50
2018-05-25T18:17:19.084Z,59.50
2018-05-25T18:19:46.504Z,59.80
2018-05-25T18:22:14.724Z,59.80
2018-05-25T18:24:42.372Z,59.70
2018-05-25T18:27:10.636Z,59.20
2018-05-25T18:29:38.211Z,60.00
2018-05-25T18:32:05.666Z,59.60
2018-05-25T18:34:33.588Z,59.70
2018-05-25T18:37:01.116Z,61.30
2018-05-25T18:39:28.534Z,60.60
2018-05-25T18:41:56.001Z,60.60
2018-05-25T18:44:23.432Z,60.80
2018-05-25T18:46:51.642Z,61.00
2018-05-25T18:49:19.127Z,60.90
2018-05-25T18:51:46.604Z,61.70
2018-05-25T18:54:26.010Z,61.40
2018-05-25T18:56:53.978Z,61.10
2018-05-25T18:59:21.559Z,61.30
2018-05-25T19:01:49.255Z,62.00
2018-05-25T19:04:18.082Z,60.80
2018-05-25T19:06:46.418Z,60.70
2018-05-25T19:09:14.631Z,61.30
2018-05-25T19:11:42.075Z,61.30
2018-05-25T19:14:09.555Z,62.20
2018-05-25T19:16:36.969Z,62.40
2018-05-25T19:19:06.286Z,61.60
2018-05-25T19:21:33.710Z,61.50
2018-05-25T19:24:01.167Z,62.80
2018-05-25T19:26:29.531Z,62.20
2018-05-25T19:28:57.114Z,62.20
2018-05-25T19:31:25.129Z,62.70
2018-05-25T19:33:52.550Z,61.70
2018-05-25T19:36:20.802Z,63.00
2018-05-25T19:38:48.246Z,62.90
2018-05-25T19:41:15.676Z,62.50
2018-05-25T19:43:43.172Z,62.80
2018-05-25T19:46:11.235Z,62.00
2018-05-25T19:48:38.666Z,61.90
2018-05-25T19:51:06.134Z,61.50
2018-05-25T19:53:34.523Z,62.70
2018-05-25T19:56:02.638Z,63.30
2018-05-25T19:58:30.957Z,64.50
2018-05-25T20:00:58.367Z,63.70
2018-05-25T20:03:25.815Z,63.40
2018-05-25T20:05:53.248Z,63.30
2018-05-25T20:08:21.069Z,64.00
2018-05-25T20:10:48.491Z,63.80
2018-05-25T20:13:16.520Z,63.70
2018-05-25T20:15:43.983Z,63.80
2018-05-25T20:18:11.479Z,63.60
2018-05-25T20:20:38.907Z,63.10
2018-05-25T20:23:06.542Z,65.20
2018-05-25T20:25:34.003Z,64.60
2018-05-25T20:28:01.482Z,64.70
2018-05-25T20:30:28.944Z,65.10
2018-05-25T20:32:56.377Z,66.00
2018-05-25T20:35:24.490Z,65.50
2018-05-25T20:37:52.459Z,65.60
2018-05-25T20:40:19.995Z,65.80
2018-05-25T20:42:47.555Z,65.80
2018-05-25T20:45:15.007Z,66.40
2018-05-25T20:47:42.431Z,66.40
2018-05-25T20:50:10.768Z,66.70
2018-05-25T20:52:38.190Z,66.60
2018-05-25T20:55:05.658Z,67.10
2018-05-25T20:57:33.447Z,67.80
2018-05-25T21:00:05.007Z,68.20
2018-05-25T21:02:32.540Z,67.40
2018-05-25T21:05:00.038Z,67.60
2018-05-25T21:07:27.585Z,68.20
2018-05-25T21:09:55.014Z,68.70
2018-05-25T21:12:22.546Z,69.00
2018-05-25T21:14:49.950Z,69.50
2018-05-25T21:17:17.384Z,70.80
2018-05-25T21:19:45.051Z,70.80
2018-05-25T21:22:13.555Z,71.70
2018-05-25T21:24:41.089Z,72.10
2018-05-25T21:27:08.498Z,72.10
2018-05-25T21:29:35.947Z,72.90
2018-05-25T21:32:03.376Z,72.90
2018-05-25T21:34:31.046Z,73.80
2018-05-25T21:36:58.763Z,73.20
2018-05-25T21:39:26.961Z,74.60
2018-05-25T21:41:54.625Z,74.60
2018-05-25T21:44:22.098Z,75.40
2018-05-25T21:46:49.517Z,75.70
2018-05-25T21:49:16.999Z,74.20
2018-05-25T21:51:44.442Z,75.20
2018-05-25T21:54:11.886Z,76.20
2018-05-25T21:56:40.091Z,75.50
2018-05-25T21:59:08.167Z,75.30
2018-05-25T22:01:35.650Z,76.40
2018-05-25T22:04:03.074Z,75.80
2018-05-25T22:06:30.995Z,76.50
2018-05-25T22:08:58.558Z,76.00
2018-05-25T22:11:25.979Z,77.10
2018-05-25T22:13:53.404Z,77.60
2018-05-25T22:16:21.077Z,77.30
2018-05-25T22:18:48.458Z,78.70
2018-05-25T22:21:15.902Z,78.50
2018-05-25T22:23:43.352Z,80.00
2018-05-25T22:26:10.835Z,79.00
2018-05-25T22:28:38.479Z,82.20
2018-05-25T22:31:05.949Z,81.00
2018-05-25T22:33:34.627Z,80.80
2018-05-25T22:36:02.067Z,82.40
2018-05-25T22:38:31.404Z,80.60
2018-05-25T22:40:58.969Z,81.50
2018-05-25T22:43:38.326Z,82.70
2018-05-25T22:46:18.470Z,84.80
2018-05-25T22:48:57.934Z,83.80
2018-05-25T22:51:38.069Z,86.30
2018-05-25T22:54:10.630Z,86.30
2018-05-25T22:56:38.058Z,89.00
2018-05-25T22:59:05.479Z,89.80
2018-05-25T23:01:33.686Z,90.20
2018-05-25T23:04:01.109Z,90.10
2018-05-25T23:06:29.351Z,91.60
2018-05-25T23:08:56.838Z,91.60
2018-05-25T23:11:25.060Z,92.20
2018-05-25T23:13:52.667Z,92.10
2018-05-25T23:16:20.087Z,92.80
2018-05-25T23:18:47.559Z,94.20
2018-05-25T23:21:14.993Z,92.10
2018-05-25T23:23:42.411Z,94.30
2018-05-25T23:26:10.922Z,93.40
2018-05-25T23:28:38.584Z,93.40
2018-05-25T23:31:06.302Z,95.90
2018-05-25T23:33:34.527Z,92.50
2018-05-25T23:36:03.384Z,92.50
2018-05-25T23:38:31.594Z,93.50
2018-05-25T23:40:59.074Z,93.50
2018-05-25T23:43:26.501Z,92.80
2018-05-25T23:45:53.977Z,93.10
2018-05-25T23:48:21.400Z,93.30
2018-05-25T23:50:48.884Z,93.90
2018-05-25T23:53:16.318Z,95.70
2018-05-25T23:55:51.923Z,94.50
2018-05-25T23:58:19.353Z,94.50
